createdAt,value
2023-04-16T00:00:57.416Z,19.93
2023-04-16T00:03:44.373Z,19.92
2023-04-16T00:06:32.273Z,19.91
2023-04-16T00:09:19.593Z,19.90
2023-04-16T00:12:06.724Z,19.89
2023-04-16T00:14:53.631Z,19.88
2023-04-16T00:17:40.546Z,19.86
2023-04-16T00:20:27.749Z,19.85
2023-04-16T00:23:14.668Z,19.85
2023-04-16T00:26:01.334Z,19.84
2023-04-16T00:28:47.876Z,19.83
2023-04-16T00:31:35.092Z,19.82
2023-04-16T00:34:23.335Z,19.81
2023-04-16T00:37:10.558Z,19.80
2023-04-16T00:39:57.579Z,19.80
2023-04-16T00:42:45.937Z,19.79
2023-04-16T00:45:33.281Z,19.78
2023-04-16T00:48:21.591Z,19.77
2023-04-16T00:51:09.231Z,19.75
2023-04-16T00:53:57.510Z,19.75
2023-04-16T00:56:45.204Z,19.73
2023-04-16T00:59:33.868Z,19.72
2023-04-16T01:02:20.902Z,19.72
2023-04-16T01:05:10.858Z,19.70
2023-04-16T01:08:00.996Z,19.70
2023-04-16T01:10:48.182Z,19.68
2023-04-16T01:13:39.326Z,19.68
2023-04-16T01:16:27.098Z,19.67
2023-04-16T01:19:14.235Z,19.66
2023-04-16T01:22:01.368Z,19.66
2023-04-16T01:24:48.166Z,19.65
2023-04-16T01:27:35.592Z,19.64
2023-04-16T01:30:22.293Z,19.63
2023-04-16T01:33:18.647Z,19.62
2023-04-16T01:36:05.970Z,19.61
2023-04-16T01:38:53.291Z,19.60
2023-04-16T01:41:40.465Z,19.59
2023-04-16T01:44:28.162Z,19.58
2023-04-16T01:47:15.672Z,19.57
2023-04-16T01:50:04.216Z,19.56
2023-04-16T01:55:43.173Z,19.54
2023-04-16T01:58:31.514Z,19.53
2023-04-16T02:01:19.337Z,19.52
2023-04-16T02:04:07.740Z,19.51
2023-04-16T02:06:54.728Z,19.50
2023-04-16T02:09:41.637Z,19.49
2023-04-16T02:12:28.948Z,19.48
2023-04-16T02:15:16.566Z,19.47
2023-04-16T02:18:04.288Z,19.46
2023-04-16T02:20:51.840Z,19.45
2023-04-16T02:23:41.202Z,19.45
2023-04-16T02:26:29.351Z,19.44
2023-04-16T02:29:19.744Z,19.43
2023-04-16T02:32:12.670Z,19.42
2023-04-16T02:35:01.036Z,19.40
2023-04-16T02:37:47.854Z,19.39
2023-04-16T02:40:36.107Z,19.39
2023-04-16T02:43:23.022Z,19.38
2023-04-16T02:46:09.853Z,19.37
2023-04-16T02:48:56.876Z,19.36
2023-04-16T02:51:43.767Z,19.35
2023-04-16T02:54:30.308Z,19.34
2023-04-16T02:57:17.069Z,19.33
2023-04-16T03:00:05.257Z,19.32
2023-04-16T03:02:52.180Z,19.31
2023-04-16T03:05:40.318Z,19.30
2023-04-16T03:08:27.904Z,19.29
2023-04-16T03:11:14.810Z,19.28
2023-04-16T03:14:01.640Z,19.27
2023-04-16T03:16:49.048Z,19.26
2023-04-16T03:19:35.726Z,19.25
2023-04-16T03:22:22.778Z,19.24
2023-04-16T03:25:09.888Z,19.23
2023-04-16T03:27:56.600Z,19.22
2023-04-16T03:30:43.721Z,19.21
2023-04-16T03:33:30.940Z,19.21
2023-04-16T03:36:17.751Z,19.20
2023-04-16T03:39:04.681Z,19.18
2023-04-16T03:41:51.837Z,19.16
2023-04-16T03:44:38.485Z,19.16
2023-04-16T03:47:25.930Z,19.15
2023-04-16T03:50:14.878Z,19.14
2023-04-16T03:53:02.325Z,19.13
2023-04-16T03:55:53.136Z,19.12
2023-04-16T03:58:40.439Z,19.11
2023-04-16T04:01:28.071Z,19.11
2023-04-16T04:04:15.526Z,19.09
2023-04-16T04:07:02.374Z,19.09
2023-04-16T04:09:49.536Z,19.08
2023-04-16T04:12:36.335Z,19.07
2023-04-16T04:15:23.451Z,19.06
2023-04-16T04:18:10.874Z,19.05
2023-04-16T04:20:58.097Z,19.06
2023-04-16T04:23:47.781Z,19.04
2023-04-16T04:26:34.737Z,19.04
2023-04-16T04:29:22.134Z,19.04
2023-04-16T04:32:09.238Z,19.03
2023-04-16T04:34:56.430Z,19.03
2023-04-16T04:37:43.777Z,19.02
2023-04-16T04:40:34.783Z,19.02
2023-04-16T04:43:24.169Z,19.02
2023-04-16T04:46:11.846Z,19.01
2023-04-16T04:49:01.050Z,19.02
2023-04-16T04:51:48.993Z,19.01
2023-04-16T04:54:35.492Z,19.01
2023-04-16T04:57:22.476Z,19.01
2023-04-16T05:00:12.196Z,19.01
2023-04-16T05:03:06.780Z,19.00
2023-04-16T05:05:54.421Z,19.01
2023-04-16T05:08:41.435Z,19.00
2023-04-16T05:11:28.135Z,19.00
2023-04-16T05:14:15.051Z,19.00
2023-04-16T05:17:02.142Z,19.00
2023-04-16T05:19:49.707Z,19.00
2023-04-16T05:22:36.515Z,19.01
2023-04-16T05:25:24.052Z,19.01
2023-04-16T05:28:11.365Z,19.01
2023-04-16T05:30:58.391Z,19.02
2023-04-16T05:33:45.162Z,19.02
2023-04-16T05:36:31.892Z,19.04
2023-04-16T05:39:19.930Z,19.05
2023-04-16T05:42:06.664Z,19.07
2023-04-16T05:44:53.770Z,19.09
2023-04-16T05:47:40.729Z,19.11
2023-04-16T05:50:27.960Z,19.13
2023-04-16T05:53:15.222Z,19.16
2023-04-16T05:56:02.064Z,19.19
2023-04-16T05:58:49.057Z,19.21
2023-04-16T06:01:36.168Z,19.24
2023-04-16T06:04:23.488Z,19.26
2023-04-16T06:07:10.393Z,19.29
2023-04-16T06:09:57.440Z,19.33
2023-04-16T06:12:44.335Z,19.36
2023-04-16T06:15:31.238Z,19.39
2023-04-16T06:18:18.090Z,19.42
2023-04-16T06:21:05.076Z,19.45
2023-04-16T06:23:51.991Z,19.48
2023-04-16T06:26:39.623Z,19.51
2023-04-16T06:29:37.051Z,19.54
2023-04-16T06:32:28.350Z,19.57
2023-04-16T06:35:15.525Z,19.60
2023-04-16T06:38:02.119Z,19.63
2023-04-16T06:40:49.758Z,19.66
2023-04-16T06:43:37.092Z,19.69
2023-04-16T06:46:24.043Z,19.72
2023-04-16T06:49:11.169Z,19.74
2023-04-16T06:51:58.744Z,19.78
2023-04-16T06:54:45.644Z,19.81
2023-04-16T06:57:32.667Z,19.85
2023-04-16T07:00:19.584Z,19.87
2023-04-16T07:03:06.560Z,19.90
2023-04-16T07:05:53.510Z,19.93
2023-04-16T07:08:40.724Z,19.94
2023-04-16T07:11:27.486Z,19.96
2023-04-16T07:14:14.348Z,19.99
2023-04-16T07:17:01.269Z,20.01
2023-04-16T07:19:48.075Z,20.04
2023-04-16T07:22:34.889Z,20.06
2023-04-16T07:25:21.924Z,20.07
2023-04-16T07:28:08.815Z,20.09
2023-04-16T07:30:56.352Z,20.11
2023-04-16T07:33:43.271Z,20.13
2023-04-16T07:36:30.174Z,20.14
2023-04-16T07:39:17.292Z,20.15
2023-04-16T07:42:03.999Z,20.17
2023-04-16T07:44:50.803Z,20.18
2023-04-16T07:47:37.959Z,20.19
2023-04-16T07:50:25.555Z,20.21
2023-04-16T07:53:12.362Z,20.23
2023-04-16T07:55:59.075Z,20.24
2023-04-16T07:58:45.993Z,20.25
2023-04-16T08:01:33.303Z,20.27
2023-04-16T08:04:25.753Z,20.28
2023-04-16T08:07:13.391Z,20.31
2023-04-16T08:10:00.616Z,20.32
2023-04-16T08:12:47.625Z,20.33
2023-04-16T08:15:34.824Z,20.34
2023-04-16T08:18:21.775Z,20.36
2023-04-16T08:21:08.984Z,20.37
2023-04-16T08:23:56.216Z,20.39
2023-04-16T08:26:43.836Z,20.40
2023-04-16T08:29:31.391Z,20.42
2023-04-16T08:32:17.977Z,20.44
2023-04-16T08:35:05.534Z,20.44
2023-04-16T08:37:53.948Z,20.47
2023-04-16T08:40:42.051Z,20.49
2023-04-16T08:43:32.853Z,20.51
2023-04-16T08:46:22.951Z,20.52
2023-04-16T08:49:18.156Z,20.53
2023-04-16T08:52:08.379Z,20.53
2023-04-16T08:55:00.715Z,20.54
2023-04-16T08:57:49.196Z,20.54
2023-04-16T09:00:37.917Z,20.54
2023-04-16T09:03:25.554Z,20.54
2023-04-16T09:09:05.641Z,20.56
2023-04-16T09:11:54.185Z,20.56
2023-04-16T09:14:43.095Z,20.58
2023-04-16T09:17:30.259Z,20.58
2023-04-16T09:20:17.131Z,20.59
2023-04-16T09:23:04.805Z,20.60
2023-04-16T09:25:51.690Z,20.62
2023-04-16T09:28:49.691Z,20.63
2023-04-16T09:31:36.541Z,20.65
2023-04-16T09:34:23.397Z,20.66
2023-04-16T09:37:19.861Z,20.67
2023-04-16T09:40:07.295Z,20.68
2023-04-16T09:42:57.704Z,20.70
2023-04-16T09:45:51.190Z,20.70
2023-04-16T09:48:38.594Z,20.71
2023-04-16T09:51:27.123Z,20.73
2023-04-16T09:54:14.210Z,20.74
2023-04-16T09:57:01.265Z,20.75
2023-04-16T09:59:52.676Z,20.76
2023-04-16T10:02:42.829Z,20.77
2023-04-16T10:05:30.085Z,20.78
2023-04-16T10:08:17.515Z,20.79
2023-04-16T10:11:05.657Z,20.80
2023-04-16T10:13:52.882Z,20.80
2023-04-16T10:16:41.753Z,20.81
2023-04-16T10:19:29.274Z,20.82
2023-04-16T10:22:16.769Z,20.83
2023-04-16T10:25:04.315Z,20.83
2023-04-16T10:27:51.357Z,20.84
2023-04-16T10:30:39.748Z,20.85
2023-04-16T10:33:33.761Z,20.87
2023-04-16T10:36:26.546Z,20.88
2023-04-16T10:39:16.898Z,20.89
2023-04-16T10:42:09.073Z,20.91
2023-04-16T10:45:00.382Z,20.93
2023-04-16T10:47:47.389Z,20.95
2023-04-16T10:50:36.200Z,20.97
2023-04-16T10:53:28.980Z,20.99
2023-04-16T10:56:23.830Z,21.03
2023-04-16T10:59:12.186Z,21.06
2023-04-16T11:02:03.915Z,21.07
2023-04-16T11:04:51.439Z,21.09
2023-04-16T11:07:49.577Z,21.11
2023-04-16T11:10:39.648Z,21.12
2023-04-16T11:13:26.818Z,21.13
2023-04-16T11:16:15.834Z,21.14
2023-04-16T11:19:03.119Z,21.15
2023-04-16T11:21:51.043Z,21.17
2023-04-16T11:24:40.478Z,21.17
2023-04-16T11:27:27.572Z,21.19
2023-04-16T11:30:14.709Z,21.20
2023-04-16T11:33:11.731Z,21.20
2023-04-16T11:35:59.282Z,21.21
2023-04-16T11:38:46.096Z,21.21
2023-04-16T11:41:32.736Z,21.21
2023-04-16T11:44:21.978Z,21.21
2023-04-16T11:47:08.702Z,21.21
2023-04-16T11:49:56.299Z,21.22
2023-04-16T11:52:43.114Z,21.22
2023-04-16T11:55:30.539Z,21.22
2023-04-16T11:58:17.241Z,21.22
2023-04-16T12:01:04.878Z,21.23
2023-04-16T12:04:02.512Z,21.25
2023-04-16T12:07:08.405Z,21.26
2023-04-16T12:10:07.780Z,21.27
2023-04-16T12:12:55.340Z,21.28
2023-04-16T12:15:47.375Z,21.29
2023-04-16T12:18:34.318Z,21.30
2023-04-16T12:21:21.418Z,21.30
2023-04-16T12:24:10.548Z,21.30
2023-04-16T12:26:57.672Z,21.30
2023-04-16T12:29:44.372Z,21.30
2023-04-16T12:32:31.315Z,21.30
2023-04-16T12:35:31.892Z,21.29
2023-04-16T12:38:19.573Z,21.30
2023-04-16T12:41:07.097Z,21.30
2023-04-16T12:44:15.021Z,21.30
2023-04-16T12:47:02.261Z,21.31
2023-04-16T12:49:49.444Z,21.31
2023-04-16T12:52:36.716Z,21.31
2023-04-16T12:55:23.475Z,21.31
2023-04-16T12:58:12.333Z,21.32
2023-04-16T13:01:00.183Z,21.32
2023-04-16T13:03:47.588Z,21.32
2023-04-16T13:06:36.974Z,21.32
2023-04-16T13:09:25.014Z,21.32
2023-04-16T13:12:12.500Z,21.32
2023-04-16T13:14:59.376Z,21.31
2023-04-16T13:17:46.440Z,21.32
2023-04-16T13:20:33.688Z,21.31
2023-04-16T13:23:20.609Z,21.31
2023-04-16T13:26:07.309Z,21.30
2023-04-16T13:28:54.131Z,21.30
2023-04-16T13:31:41.458Z,21.29
2023-04-16T13:34:28.465Z,21.29
2023-04-16T13:37:15.185Z,21.27
2023-04-16T13:40:02.117Z,21.27
2023-04-16T13:42:49.226Z,21.26
2023-04-16T13:45:37.355Z,21.25
2023-04-16T13:48:24.057Z,21.25
2023-04-16T13:51:11.081Z,21.24
2023-04-16T13:53:57.679Z,21.24
2023-04-16T13:56:44.604Z,21.23
2023-04-16T13:59:32.120Z,21.22
2023-04-16T14:02:19.280Z,21.21
2023-04-16T14:05:07.174Z,21.21
2023-04-16T14:07:54.396Z,21.21
2023-04-16T14:10:41.326Z,21.20
2023-04-16T14:13:28.432Z,21.20
2023-04-16T14:16:15.921Z,21.19
2023-04-16T14:19:02.863Z,21.19
2023-04-16T14:21:49.790Z,21.19
2023-04-16T14:24:36.813Z,21.18
2023-04-16T14:27:23.712Z,21.18
2023-04-16T14:30:11.246Z,21.17
2023-04-16T14:32:58.623Z,21.17
2023-04-16T14:35:45.478Z,21.16
2023-04-16T14:38:32.698Z,21.16
2023-04-16T14:41:19.693Z,21.16
2023-04-16T14:44:06.904Z,21.16
2023-04-16T14:46:54.055Z,21.16
2023-04-16T14:49:40.755Z,21.15
2023-04-16T14:52:28.052Z,21.15
2023-04-16T14:55:14.998Z,21.15
2023-04-16T14:58:02.053Z,21.15
2023-04-16T15:00:49.248Z,21.15
2023-04-16T15:03:36.475Z,21.14
2023-04-16T15:06:23.283Z,21.14
2023-04-16T15:09:10.546Z,21.14
2023-04-16T15:11:58.134Z,21.15
2023-04-16T15:14:44.963Z,21.14
2023-04-16T15:17:31.588Z,21.14
2023-04-16T15:20:18.806Z,21.14
2023-04-16T15:23:05.966Z,21.13
2023-04-16T15:25:52.582Z,21.13
2023-04-16T15:28:39.614Z,21.13
2023-04-16T15:31:27.041Z,21.13
2023-04-16T15:34:13.896Z,21.13
2023-04-16T15:37:01.055Z,21.12
2023-04-16T15:39:47.883Z,21.11
2023-04-16T15:42:35.101Z,21.11
2023-04-16T15:45:22.737Z,21.10
2023-04-16T15:48:09.562Z,21.10
2023-04-16T15:50:56.966Z,21.09
2023-04-16T15:53:45.439Z,21.08
2023-04-16T15:56:33.045Z,21.07
2023-04-16T15:59:20.102Z,21.06
2023-04-16T16:02:06.794Z,21.06
2023-04-16T16:04:54.443Z,21.05
2023-04-16T16:07:42.841Z,21.04
2023-04-16T16:10:29.864Z,21.04
2023-04-16T16:13:19.091Z,21.03
2023-04-16T16:16:06.873Z,21.02
2023-04-16T16:18:53.782Z,21.02
2023-04-16T16:21:41.192Z,21.01
2023-04-16T16:24:28.281Z,21.00
2023-04-16T16:27:15.949Z,21.00
2023-04-16T16:30:04.795Z,20.99
2023-04-16T16:32:51.664Z,20.98
2023-04-16T16:35:38.397Z,20.97
2023-04-16T16:38:25.943Z,20.97
2023-04-16T16:41:13.675Z,20.97
2023-04-16T16:44:00.701Z,20.96
2023-04-16T16:46:48.522Z,20.95
2023-04-16T16:49:35.975Z,20.94
2023-04-16T16:52:24.511Z,20.94
2023-04-16T16:55:11.534Z,20.93
2023-04-16T16:57:58.777Z,20.93
2023-04-16T17:00:45.664Z,20.92
2023-04-16T17:03:33.868Z,20.91
2023-04-16T17:06:21.594Z,20.91
2023-04-16T17:09:09.239Z,20.90
2023-04-16T17:11:57.238Z,20.89
2023-04-16T17:14:44.112Z,20.88
2023-04-16T17:17:31.815Z,20.88
2023-04-16T17:20:20.116Z,20.87
2023-04-16T17:23:07.030Z,20.87
2023-04-16T17:25:54.040Z,20.86
2023-04-16T17:28:41.375Z,20.85
2023-04-16T17:31:28.836Z,20.84
2023-04-16T17:34:15.678Z,20.83
2023-04-16T17:37:02.714Z,20.83
2023-04-16T17:39:51.266Z,20.82
2023-04-16T17:42:38.692Z,20.81
2023-04-16T17:45:25.496Z,20.80
2023-04-16T17:48:12.628Z,20.79
2023-04-16T17:50:59.645Z,20.79
2023-04-16T17:53:46.756Z,20.79
2023-04-16T17:56:33.770Z,20.78
2023-04-16T17:59:20.984Z,20.77
2023-04-16T18:02:07.645Z,20.77
2023-04-16T18:04:55.223Z,20.77
2023-04-16T18:07:46.650Z,20.76
2023-04-16T18:10:33.674Z,20.76
2023-04-16T18:13:21.803Z,20.75
2023-04-16T18:16:17.289Z,20.74
2023-04-16T18:19:04.331Z,20.74
2023-04-16T18:21:50.949Z,20.74
2023-04-16T18:24:38.276Z,20.72
2023-04-16T18:27:25.596Z,20.72
2023-04-16T18:30:19.834Z,20.72
2023-04-16T18:33:42.769Z,20.71
2023-04-16T18:36:19.010Z,20.70
2023-04-16T18:41:59.875Z,20.69
2023-04-16T18:47:47.362Z,20.69
2023-04-16T18:50:34.549Z,20.68
2023-04-16T18:53:21.875Z,20.68
2023-04-16T18:56:09.098Z,20.68
2023-04-16T18:58:56.013Z,20.67
2023-04-16T19:01:43.336Z,20.66
2023-04-16T19:07:22.613Z,20.65
2023-04-16T19:10:10.355Z,20.64
2023-04-16T19:12:58.080Z,20.63
2023-04-16T19:15:45.678Z,20.62
2023-04-16T19:18:32.909Z,20.62
2023-04-16T19:21:19.599Z,20.61
2023-04-16T19:24:07.066Z,20.60
2023-04-16T19:26:54.159Z,20.60
2023-04-16T19:29:42.916Z,20.59
2023-04-16T19:32:29.956Z,20.59
2023-04-16T19:35:16.929Z,20.58
2023-04-16T19:38:03.974Z,20.58
2023-04-16T19:40:50.984Z,20.57
2023-04-16T19:43:37.888Z,20.56
2023-04-16T19:46:24.670Z,20.55
2023-04-16T19:49:12.361Z,20.55
2023-04-16T19:51:59.875Z,20.54
2023-04-16T19:54:46.830Z,20.54
2023-04-16T19:57:33.990Z,20.53
2023-04-16T20:00:21.117Z,20.53
2023-04-16T20:03:08.404Z,20.51
2023-04-16T20:05:55.967Z,20.50
2023-04-16T20:08:44.772Z,20.50
2023-04-16T20:11:31.731Z,20.50
2023-04-16T20:14:18.869Z,20.49
2023-04-16T20:17:10.373Z,20.48
2023-04-16T20:20:01.110Z,20.48
2023-04-16T20:22:47.831Z,20.47
2023-04-16T20:25:34.499Z,20.46
2023-04-16T20:28:21.692Z,20.46
2023-04-16T20:31:09.205Z,20.45
2023-04-16T20:33:56.159Z,20.45
2023-04-16T20:36:43.032Z,20.44
2023-04-16T20:39:33.952Z,20.43
2023-04-16T20:42:22.721Z,20.43
2023-04-16T20:45:11.216Z,20.42
2023-04-16T20:48:00.525Z,20.41
2023-04-16T20:50:47.258Z,20.41
2023-04-16T20:53:34.196Z,20.40
2023-04-16T20:56:21.116Z,20.39
2023-04-16T20:59:08.312Z,20.38
2023-04-16T21:01:56.894Z,20.37
2023-04-16T21:04:44.157Z,20.37
2023-04-16T21:07:31.316Z,20.36
2023-04-16T21:10:20.514Z,20.36
2023-04-16T21:13:07.599Z,20.35
2023-04-16T21:15:54.440Z,20.34
2023-04-16T21:18:41.535Z,20.34
2023-04-16T21:21:28.837Z,20.33
2023-04-16T21:24:15.980Z,20.33
2023-04-16T21:27:03.371Z,20.31
2023-04-16T21:29:50.107Z,20.31
2023-04-16T21:32:36.885Z,20.30
2023-04-16T21:35:23.832Z,20.29
2023-04-16T21:38:11.049Z,20.29
2023-04-16T21:40:58.168Z,20.28
2023-04-16T21:43:44.968Z,20.28
2023-04-16T21:46:31.813Z,20.27
2023-04-16T21:49:19.209Z,20.26
2023-04-16T21:52:05.904Z,20.26
2023-04-16T21:54:53.047Z,20.25
2023-04-16T21:57:40.060Z,20.25
2023-04-16T22:00:26.896Z,20.24
2023-04-16T22:03:14.521Z,20.24
2023-04-16T22:06:02.375Z,20.24
2023-04-16T22:08:50.280Z,20.23
2023-04-16T22:11:38.317Z,20.23
2023-04-16T22:14:25.880Z,20.22
2023-04-16T22:17:13.069Z,20.21
2023-04-16T22:20:00.895Z,20.21
2023-04-16T22:22:48.116Z,20.21
2023-04-16T22:25:34.928Z,20.20
2023-04-16T22:28:22.371Z,20.19
2023-04-16T22:31:10.158Z,20.19
2023-04-16T22:33:56.790Z,20.18
2023-04-16T22:36:43.596Z,20.18
2023-04-16T22:39:31.664Z,20.18
2023-04-16T22:42:18.244Z,20.17
2023-04-16T22:45:06.189Z,20.17
2023-04-16T22:47:53.601Z,20.16
2023-04-16T22:50:41.535Z,20.16
2023-04-16T22:53:28.788Z,20.15
2023-04-16T22:56:15.787Z,20.15
2023-04-16T22:59:02.587Z,20.15
2023-04-16T23:01:50.052Z,20.14
2023-04-16T23:04:37.358Z,20.14
2023-04-16T23:07:24.469Z,20.13
2023-04-16T23:10:11.293Z,20.12
2023-04-16T23:12:58.396Z,20.12
2023-04-16T23:15:47.483Z,20.12
2023-04-16T23:18:34.884Z,20.11
2023-04-16T23:21:23.133Z,20.11
2023-04-16T23:24:10.037Z,20.10
2023-04-16T23:26:58.001Z,20.09
2023-04-16T23:29:44.690Z,20.09
2023-04-16T23:32:32.010Z,20.08
2023-04-16T23:35:22.947Z,20.07
2023-04-16T23:38:09.811Z,20.06
2023-04-16T23:40:56.978Z,20.06
2023-04-16T23:43:44.064Z,20.05
2023-04-16T23:46:31.772Z,20.05
2023-04-16T23:49:18.435Z,20.04
2023-04-16T23:52:06.067Z,20.03
2023-04-16T23:54:53.251Z,20.03
2023-04-16T23:57:40.362Z,20.02
